Time;durP1;ratioP1;P1;durP2;ratioP2;P2;SDS_P1;SDS_P2;PMS_P1;PMS_P2;Temp;Humidity;BMP_temperature;BMP_pressure;BME280_temperature;BME280_humidity;BME280_pressure;Samples;Min_cycle;Max_cycle;Signal;HPM_P1;HPM_P2
2022/03/30 00:01:21;;;;;;;10.23;5.10;;;;;;;0.83;57.43;98031.00;5033206;28;20073;-56
2022/03/30 00:03:47;;;;;;;7.82;4.13;;;;;;;0.82;57.18;98025.03;5017705;28;20438;-49
2022/03/30 00:06:12;;;;;;;6.82;4.55;;;;;;;0.84;57.21;98028.38;5014546;28;20041;-53
2022/03/30 00:08:38;;;;;;;7.85;4.93;;;;;;;0.84;57.39;98036.06;5037118;28;20067;-50
2022/03/30 00:11:04;;;;;;;5.40;3.22;;;;;;;0.81;56.86;98030.19;5013953;28;20572;-53
2022/03/30 00:13:30;;;;;;;4.22;3.03;;;;;;;0.78;56.58;98032.81;5018088;28;20053;-48
2022/03/30 00:15:55;;;;;;;7.18;3.05;;;;;;;0.77;56.71;98026.00;5022736;28;20081;-49
2022/03/30 00:18:21;;;;;;;6.60;3.00;;;;;;;0.74;56.55;98034.56;5030831;28;20038;-51
2022/03/30 00:20:47;;;;;;;4.60;3.10;;;;;;;0.70;56.67;98035.53;5033355;28;20072;-53
2022/03/30 00:23:13;;;;;;;5.18;3.13;;;;;;;0.71;56.64;98041.47;5030931;28;20048;-51
2022/03/30 00:25:39;;;;;;;4.72;3.15;;;;;;;0.68;56.57;98051.78;5022164;28;20046;-53
2022/03/30 00:28:05;;;;;;;6.72;3.65;;;;;;;0.64;56.63;98043.31;5021782;28;20124;-51
2022/03/30 00:30:31;;;;;;;4.70;2.45;;;;;;;0.64;56.30;98047.59;5031132;28;20132;-50
2022/03/30 00:32:57;;;;;;;3.90;2.35;;;;;;;0.60;55.77;98049.38;5027158;28;20049;-49
2022/03/30 00:35:22;;;;;;;3.67;2.00;;;;;;;0.54;55.74;98049.50;5021512;28;20107;-56
2022/03/30 00:37:48;;;;;;;6.47;2.22;;;;;;;0.52;55.19;98053.81;5036864;28;20383;-55
2022/03/30 00:40:16;;;;;;;5.28;2.90;;;;;;;0.52;55.61;98066.59;5032983;28;20045;-53
2022/03/30 00:42:42;;;;;;;3.97;2.50;;;;;;;0.49;55.32;98055.59;5028430;28;20045;-52
2022/03/30 00:45:13;;;;;;;4.82;2.75;;;;;;;0.47;55.45;98062.47;5017860;28;20037;-50
2022/03/30 00:47:39;;;;;;;4.75;2.40;;;;;;;0.35;55.29;98059.28;5031126;28;20029;-49
2022/03/30 00:50:07;;;;;;;5.22;2.60;;;;;;;0.34;55.32;98061.84;5029562;28;20561;-49
2022/03/30 00:52:33;;;;;;;5.50;2.55;;;;;;;0.32;55.47;98061.03;5031023;28;20095;-54
2022/03/30 00:54:59;;;;;;;4.93;2.92;;;;;;;0.30;55.36;98065.34;5032409;28;20045;-50
2022/03/30 00:57:27;;;;;;;3.63;2.38;;;;;;;0.23;55.22;98061.22;5032228;28;20129;-50
2022/03/30 00:59:54;;;;;;;4.05;2.22;;;;;;;0.20;55.21;98063.84;5025915;28;20038;-51
2022/03/30 01:02:20;;;;;;;4.53;2.80;;;;;;;0.22;55.40;98067.19;5012741;28;20058;-52
2022/03/30 01:04:47;;;;;;;4.18;2.72;;;;;;;0.18;55.16;98070.69;5032098;28;20579;-55
2022/03/30 01:07:13;;;;;;;6.20;2.10;;;;;;;0.15;55.30;98073.31;5014281;28;20537;-54
2022/03/30 01:09:39;;;;;;;4.70;2.55;;;;;;;0.13;55.58;98083.53;5026517;28;20132;-53
2022/03/30 01:12:07;;;;;;;4.82;2.50;;;;;;;0.14;55.76;98081.84;5030945;28;20140;-54
2022/03/30 01:14:34;;;;;;;4.82;2.63;;;;;;;0.13;55.68;98093.75;5030685;28;20136;-53
2022/03/30 01:16:59;;;;;;;4.15;2.50;;;;;;;0.03;55.79;98076.91;5031715;28;20041;-53
2022/03/30 01:19:29;;;;;;;4.82;2.75;;;;;;;0.13;55.49;98082.69;5032466;28;20045;-52
2022/03/30 01:21:55;;;;;;;6.13;3.10;;;;;;;0.16;56.17;98090.31;5031920;28;20037;-53
2022/03/30 01:24:21;;;;;;;5.78;3.03;;;;;;;0.18;55.95;98089.41;5017348;28;20123;-54
2022/03/30 01:26:48;;;;;;;3.85;2.63;;;;;;;0.21;56.00;98091.91;5030702;28;20048;-55
2022/03/30 01:34:43;;;;;;;3.55;2.20;;;;;;;0.23;55.97;98097.81;5029958;28;20041;-52
2022/03/30 01:37:10;;;;;;;3.92;2.22;;;;;;;0.22;55.87;98098.69;5063315;28;20037;-54
2022/03/30 01:39:37;;;;;;;3.00;2.05;;;;;;;0.22;55.80;98102.97;5026925;28;20418;-53
2022/03/30 01:42:03;;;;;;;5.32;2.13;;;;;;;0.13;55.47;98093.75;5030903;28;20037;-51
2022/03/30 01:44:29;;;;;;;4.50;2.40;;;;;;;0.19;55.77;98103.03;5031687;28;20052;-49
2022/03/30 01:46:55;;;;;;;4.82;2.33;;;;;;;0.17;55.59;98108.16;5031540;28;20611;-50
2022/03/30 01:49:21;;;;;;;5.10;2.30;;;;;;;0.20;55.66;98113.22;5029830;28;20072;-49
2022/03/30 01:51:51;;;;;;;3.92;2.40;;;;;;;0.25;55.89;98115.69;5029521;28;20151;-53
2022/03/30 01:54:17;;;;;;;;;;;;;;;0.28;55.71;98119.03;5031314;28;20048;-50
2022/03/30 01:56:43;;;;;;;5.55;3.03;;;;;;;0.30;55.94;98119.84;5063699;28;19967;-49
2022/03/30 01:59:08;;;;;;;5.15;2.90;;;;;;;0.32;55.73;98128.31;5029256;28;20468;-56
2022/03/30 02:01:34;;;;;;;5.72;2.80;;;;;;;0.25;55.98;98116.53;5030948;28;20037;-50
2022/03/30 02:04:00;;;;;;;8.98;3.60;;;;;;;0.34;55.95;98129.13;5015040;28;20096;-51
2022/03/30 02:06:26;;;;;;;5.35;3.50;;;;;;;0.35;56.46;98133.38;5030265;28;20049;-51
2022/03/30 02:08:52;;;;;;;10.07;4.15;;;;;;;0.18;56.88;98102.19;5030237;28;20103;-50
2022/03/30 02:11:18;;;;;;;6.22;3.85;;;;;;;0.35;57.06;98138.50;5030859;28;20529;-48
2022/03/30 02:13:44;;;;;;;4.85;3.20;;;;;;;0.27;57.01;98136.94;5029585;28;20155;-52
2022/03/30 02:16:10;;;;;;;5.75;3.20;;;;;;;0.27;57.45;98140.34;5030987;28;20037;-51
2022/03/30 02:18:35;;;;;;;5.18;2.92;;;;;;;0.19;57.19;98133.69;5030613;28;20528;-54
2022/03/30 02:21:01;;;;;;;4.35;2.75;;;;;;;0.24;57.36;98137.84;5030814;28;20417;-50
2022/03/30 02:23:27;;;;;;;5.00;3.60;;;;;;;0.24;57.73;98145.53;5028893;28;20167;-54
2022/03/30 02:25:53;;;;;;;5.30;3.30;;;;;;;0.18;57.98;98142.22;5011813;28;20053;-52
2022/03/30 02:28:18;;;;;;;7.80;3.47;;;;;;;0.21;57.87;98145.56;5020415;28;20048;-52
2022/03/30 02:30:44;;;;;;;4.60;2.90;;;;;;;0.18;58.16;98140.50;5030433;28;20041;-54
2022/03/30 02:33:10;;;;;;;4.18;2.80;;;;;;;0.11;57.68;98154.25;5029590;28;20561;-54
2022/03/30 02:35:36;;;;;;;4.07;3.13;;;;;;;0.08;57.96;98158.56;5026422;28;20556;-52
2022/03/30 02:38:01;;;;;;;6.55;2.90;;;;;;;0.00;58.09;98161.28;5042697;28;20044;-48
2022/03/30 02:40:27;;;;;;;5.28;2.85;;;;;;;-0.04;58.44;98170.69;5027717;28;20144;-49
2022/03/30 02:42:53;;;;;;;5.15;3.05;;;;;;;-0.14;58.24;98173.41;5012610;28;20425;-52
2022/03/30 02:45:19;;;;;;;5.43;3.03;;;;;;;-0.21;58.60;98171.84;5030567;28;20045;-52
2022/03/30 02:50:29;;;;;;;6.20;3.22;;;;;;;-0.31;58.61;98178.78;5062576;28;20623;-52
2022/03/30 02:52:55;;;;;;;5.00;3.13;;;;;;;-0.31;58.91;98177.94;5030136;28;20068;-52
2022/03/30 02:55:20;;;;;;;4.47;2.72;;;;;;;-0.34;58.90;98186.50;5029489;28;20092;-49
2022/03/30 02:57:46;;;;;;;5.28;3.13;;;;;;;-0.58;58.63;98169.84;5030457;28;20133;-50
2022/03/30 03:00:12;;;;;;;5.90;3.40;;;;;;;-0.46;58.64;98189.22;5028932;28;20045;-50
2022/03/30 03:02:39;;;;;;;6.32;2.72;;;;;;;-0.48;58.65;98175.66;5030020;28;20049;-55
2022/03/30 03:05:05;;;;;;;4.65;2.78;;;;;;;-0.50;58.77;98172.25;5030645;28;20179;-52
2022/03/30 03:07:31;;;;;;;5.63;2.88;;;;;;;-0.34;58.37;98194.16;5029569;28;20045;-49
2022/03/30 03:09:57;;;;;;;4.28;2.58;;;;;;;-0.31;58.45;98191.53;5029354;28;20041;-54
2022/03/30 03:12:22;;;;;;;6.20;3.03;;;;;;;-0.28;58.68;98195.78;5029472;28;20065;-50
2022/03/30 03:14:48;;;;;;;4.65;2.33;;;;;;;-0.30;58.26;98197.50;5030560;28;20060;-52
2022/03/30 03:17:14;;;;;;;3.42;2.38;;;;;;;-0.31;58.28;98199.19;5028174;28;20487;-56
2022/03/30 03:19:41;;;;;;;3.22;2.55;;;;;;;-0.41;58.05;98200.19;5026961;28;20037;-53
2022/03/30 03:22:07;;;;;;;4.68;3.05;;;;;;;-0.56;58.08;98205.53;5028669;28;20049;-50
2022/03/30 03:24:33;;;;;;;5.72;2.83;;;;;;;-0.71;58.33;98210.84;5029664;28;20413;-52
2022/03/30 03:26:59;;;;;;;5.13;3.00;;;;;;;-1.02;58.79;98183.19;5030468;28;20037;-51
2022/03/30 03:29:25;;;;;;;3.97;2.63;;;;;;;-1.08;58.83;98198.53;5029396;28;20103;-51
2022/03/30 03:31:51;;;;;;;3.55;2.70;;;;;;;-1.11;59.22;98213.06;5030368;28;20040;-49
2022/03/30 03:34:17;;;;;;;7.78;2.92;;;;;;;-1.22;59.30;98208.06;5034263;28;20033;-53
2022/03/30 03:36:43;;;;;;;4.78;3.10;;;;;;;-1.27;59.67;98221.72;5034133;28;20033;-53
2022/03/30 03:39:08;;;;;;;3.83;2.78;;;;;;;-1.44;59.50;98216.81;5031352;28;20045;-50
2022/03/30 03:41:35;;;;;;;4.72;2.70;;;;;;;-1.57;59.74;98212.69;5031327;28;20090;-52
2022/03/30 03:44:01;;;;;;;4.63;2.95;;;;;;;-1.53;60.09;98227.09;5034325;28;20049;-51
2022/03/30 03:46:27;;;;;;;4.90;2.80;;;;;;;-1.59;60.09;98227.16;5032224;28;20033;-50
2022/03/30 03:48:53;;;;;;;7.75;3.10;;;;;;;-1.62;60.26;98234.84;5033837;28;20529;-51
2022/03/30 03:51:19;;;;;;;5.70;3.50;;;;;;;-1.67;60.30;98246.78;5028175;28;20064;-47
2022/03/30 03:53:45;;;;;;;7.05;3.90;;;;;;;-1.75;60.72;98244.28;5033676;28;20079;-49
2022/03/30 03:56:10;;;;;;;11.65;3.40;;;;;;;-1.76;60.59;98251.06;5030218;28;20052;-50
2022/03/30 03:58:36;;;;;;;5.95;3.30;;;;;;;-1.79;60.75;98250.25;5033526;28;20037;-51
2022/03/30 04:01:02;;;;;;;6.05;3.20;;;;;;;-1.82;60.78;98256.22;5033121;28;20045;-49
2022/03/30 04:03:28;;;;;;;5.32;3.20;;;;;;;-1.81;60.86;98257.06;5031019;28;20521;-52
2022/03/30 04:05:53;;;;;;;5.03;2.85;;;;;;;-1.84;61.01;98265.59;5033188;28;20049;-52
2022/03/30 04:08:20;;;;;;;5.20;2.70;;;;;;;-1.97;60.96;98268.22;5033016;28;20041;-54
2022/03/30 04:10:47;;;;;;;6.20;3.03;;;;;;;-2.16;61.27;98264.97;5032495;28;20506;-52
2022/03/30 04:13:12;;;;;;;4.53;2.90;;;;;;;-2.18;61.40;98275.16;5031616;28;20454;-51
2022/03/30 04:15:38;;;;;;;5.45;3.15;;;;;;;-2.14;61.12;98286.16;5032820;28;20036;-49
2022/03/30 04:18:04;;;;;;;7.05;3.25;;;;;;;-2.19;61.33;98259.88;5033329;28;20072;-51
2022/03/30 04:20:31;;;;;;;9.40;3.70;;;;;;;-2.03;61.27;98279.28;5031980;28;20041;-52
2022/03/30 04:22:57;;;;;;;7.20;3.70;;;;;;;-2.00;61.30;98286.91;5044071;28;20049;-52
2022/03/30 04:25:23;;;;;;;6.70;3.53;;;;;;;-1.92;61.21;98286.84;5031986;28;20114;-52
2022/03/30 04:27:50;;;;;;;6.22;3.50;;;;;;;-1.83;61.26;98289.31;5030993;28;20033;-54
2022/03/30 04:30:17;;;;;;;8.05;3.35;;;;;;;-1.81;61.33;98290.16;5032424;28;20547;-50
2022/03/30 04:32:44;;;;;;;8.05;3.30;;;;;;;-1.86;61.16;98272.38;5031446;28;20429;-55
2022/03/30 04:35:11;;;;;;;5.78;3.17;;;;;;;-1.86;60.88;98300.38;5033132;28;20044;-49
2022/03/30 04:37:38;;;;;;;7.25;3.47;;;;;;;-1.88;61.37;98298.69;5019949;28;20468;-50
2022/03/30 04:40:05;;;;;;;5.55;3.38;;;;;;;-1.84;61.55;98298.69;5031855;28;20469;-48
2022/03/30 04:42:31;;;;;;;5.35;3.22;;;;;;;-1.81;61.53;98300.34;5030663;28;20045;-51
2022/03/30 04:44:56;;;;;;;6.13;3.20;;;;;;;-1.81;61.64;98292.72;5021039;28;20056;-52
2022/03/30 04:47:22;;;;;;;6.88;3.60;;;;;;;-1.79;61.60;98301.19;5015257;28;20458;-50
2022/03/30 04:49:48;;;;;;;6.25;3.30;;;;;;;-1.86;61.69;98302.09;5012671;28;20038;-48
2022/03/30 04:52:14;;;;;;;3.80;2.92;;;;;;;-1.90;61.62;98296.19;5015731;28;20136;-55
2022/03/30 04:54:39;;;;;;;4.70;2.83;;;;;;;-1.84;61.74;98315.66;5029822;28;20045;-51
2022/03/30 04:57:05;;;;;;;5.10;3.00;;;;;;;-1.75;61.70;98311.34;5031997;28;20037;-49
2022/03/30 04:59:31;;;;;;;3.95;2.80;;;;;;;-1.70;61.48;98303.66;5030785;28;20063;-50
2022/03/30 05:01:58;;;;;;;9.68;3.00;;;;;;;-1.58;61.58;98312.91;5030895;28;20081;-49
2022/03/30 05:04:23;;;;;;;8.60;3.05;;;;;;;-1.49;61.11;98312.84;5053416;28;20137;-51
2022/03/30 05:06:49;;;;;;;7.93;3.13;;;;;;;-1.50;60.89;98303.50;5025601;28;20361;-51
2022/03/30 05:09:15;;;;;;;4.50;2.50;;;;;;;-1.36;60.76;98316.97;5031232;28;20038;-49
2022/03/30 05:11:41;;;;;;;4.70;2.58;;;;;;;-1.30;60.64;98333.03;5029950;28;20041;-49
2022/03/30 05:14:12;;;;;;;3.85;2.28;;;;;;;-1.27;60.23;98319.44;5031346;28;20040;-53
2022/03/30 05:16:38;;;;;;;4.50;2.90;;;;;;;-1.14;60.30;98320.16;5031061;28;20748;-49
2022/03/30 05:19:04;;;;;;;4.68;3.05;;;;;;;-1.09;60.10;98329.44;5030986;28;20041;-49
2022/03/30 05:21:30;;;;;;;3.63;2.63;;;;;;;-0.94;59.89;98331.84;5022953;28;20049;-51
2022/03/30 05:23:55;;;;;;;4.18;2.47;;;;;;;-0.86;58.61;98342.81;5028498;28;20064;-49
2022/03/30 05:26:21;;;;;;;4.28;2.83;;;;;;;-0.86;58.67;98335.19;5028565;28;20033;-49
2022/03/30 05:28:47;;;;;;;6.55;3.58;;;;;;;-0.76;58.20;98342.72;5031093;28;20045;-57
2022/03/30 05:31:13;;;;;;;8.75;2.90;;;;;;;-0.61;57.89;98337.44;5010434;28;20046;-55
2022/03/30 05:33:38;;;;;;;8.52;2.90;;;;;;;-0.54;57.83;98354.38;5031380;28;20037;-53
2022/03/30 05:36:04;;;;;;;4.15;2.10;;;;;;;-0.54;57.27;98350.13;5030183;28;20523;-52
2022/03/30 05:38:30;;;;;;;5.22;2.20;;;;;;;-0.64;56.79;98350.25;5046947;28;20513;-51
2022/03/30 05:40:56;;;;;;;4.63;2.38;;;;;;;-0.41;56.71;98358.47;5029372;28;20049;-54
2022/03/30 05:43:22;;;;;;;4.75;2.42;;;;;;;-0.20;56.19;98358.22;5031901;28;20045;-54
2022/03/30 05:45:48;;;;;;;5.70;2.45;;;;;;;-0.06;55.84;98358.91;5031606;28;20403;-53
2022/03/30 05:48:16;;;;;;;4.07;2.50;;;;;;;0.15;55.71;98362.03;5026596;28;20037;-54
2022/03/30 05:50:41;;;;;;;4.20;2.45;;;;;;;0.45;55.06;98355.59;5030547;28;20041;-55
2022/03/30 05:53:07;;;;;;;3.22;2.47;;;;;;;0.72;54.50;98361.13;5014107;28;20040;-58
2022/03/30 05:55:33;;;;;;;2.53;1.65;;;;;;;0.64;53.11;98370.63;5026339;28;20033;-54
2022/03/30 05:58:18;;;;;;;3.33;1.95;;;;;;;0.64;52.85;98373.19;5026099;28;20049;-52
2022/03/30 06:00:45;;;;;;;6.07;2.45;;;;;;;0.93;52.25;98339.47;5028747;28;20521;-54
2022/03/30 06:03:11;;;;;;;5.25;2.83;;;;;;;1.51;51.21;98377.63;5029518;28;20063;-54
2022/03/30 06:05:37;;;;;;;5.68;2.28;;;;;;;2.37;49.85;98363.84;5031169;28;20124;-54
2022/03/30 06:08:04;;;;;;;4.28;2.10;;;;;;;2.51;49.00;98374.66;5029923;28;20040;-52
2022/03/30 06:10:29;;;;;;;3.08;2.30;;;;;;;3.94;46.43;98374.31;5031090;28;20048;-51
2022/03/30 06:12:56;;;;;;;4.28;2.33;;;;;;;4.37;44.54;98366.19;5034367;28;20044;-53
2022/03/30 06:15:26;;;;;;;2.58;1.83;;;;;;;4.22;45.45;98369.22;5025408;28;20091;-53
2022/03/30 06:17:53;;;;;;;3.08;2.17;;;;;;;4.44;43.14;98380.56;5025038;28;20033;-53
2022/03/30 06:20:19;;;;;;;2.92;2.25;;;;;;;4.06;43.67;98388.56;5028369;28;20509;-55
2022/03/30 06:22:44;;;;;;;4.22;1.80;;;;;;;3.41;43.62;98388.66;5057813;28;20045;-54
2022/03/30 06:25:11;;;;;;;2.80;1.85;;;;;;;4.68;40.74;98368.66;5025234;28;20037;-55
2022/03/30 06:27:38;;;;;;;5.22;2.10;;;;;;;4.20;41.96;98389.84;4996556;28;20046;-54
2022/03/30 06:30:05;;;;;;;4.88;2.40;;;;;;;3.84;43.52;98383.19;5028066;28;20136;-54
2022/03/30 06:32:31;;;;;;;3.40;2.47;;;;;;;5.80;40.44;98389.75;5023642;28;20042;-57
2022/03/30 06:34:56;;;;;;;2.60;1.77;;;;;;;6.95;38.63;98402.56;5014647;28;20046;-51
2022/03/30 06:37:23;;;;;;;2.65;1.88;;;;;;;6.38;38.26;98404.78;5022194;28;20087;-54
2022/03/30 06:39:49;;;;;;;3.55;2.35;;;;;;;7.46;36.76;98408.19;5020825;28;20049;-51
2022/03/30 06:42:17;;;;;;;1.23;1.13;;;;;;;8.69;32.89;98414.81;5025599;28;20067;-54
2022/03/30 06:44:43;;;;;;;5.35;4.85;;;;;;;8.71;33.66;98415.53;5050425;28;20500;-54
2022/03/30 06:47:09;;;;;;;4.65;2.13;;;;;;;8.90;33.18;98408.56;5039820;28;20064;-53
2022/03/30 06:49:38;;;;;;;2.95;1.92;;;;;;;9.38;33.12;98413.13;5029030;28;20057;-51
2022/03/30 06:52:05;;;;;;;3.10;2.08;;;;;;;10.06;31.99;98407.00;5061053;28;20041;-53
2022/03/30 06:54:31;;;;;;;3.10;2.17;;;;;;;8.94;32.89;98417.91;5011034;28;20068;-56
2022/03/30 06:56:59;;;;;;;7.47;2.00;;;;;;;8.33;33.69;98418.16;5017112;28;20087;-55
2022/03/30 06:59:25;;;;;;;3.30;1.85;;;;;;;7.39;34.40;98419.66;5029849;28;20041;-55
2022/03/30 07:01:51;;;;;;;4.10;2.45;;;;;;;6.57;35.74;98435.06;5038427;28;20041;-52
2022/03/30 07:04:17;;;;;;;4.10;1.80;;;;;;;6.01;36.28;98430.28;5029301;28;20560;-51
2022/03/30 07:12:12;;;;;;;13.15;4.72;;;;;;;6.10;34.54;98434.25;5031864;28;20095;-52
2022/03/30 07:14:37;;;;;;;3.78;2.30;;;;;;;5.36;35.17;98423.06;5032210;28;20049;-56
2022/03/30 07:17:03;;;;;;;2.58;1.30;;;;;;;4.72;36.00;98447.44;5033022;28;20077;-53
2022/03/30 07:19:29;;;;;;;3.92;2.00;;;;;;;4.38;37.24;98437.34;5016114;28;20041;-54
2022/03/30 07:21:55;;;;;;;3.65;2.17;;;;;;;5.52;36.32;98447.41;5032397;28;20052;-53
2022/03/30 07:24:21;;;;;;;2.78;2.10;;;;;;;5.65;36.17;98429.81;5026989;28;20045;-50
2022/03/30 07:26:47;;;;;;;3.58;2.13;;;;;;;5.58;36.34;98454.09;5013807;28;20045;-52
2022/03/30 07:29:12;;;;;;;2.03;1.80;;;;;;;5.26;36.81;98438.88;5029734;28;20103;-51
2022/03/30 07:31:38;;;;;;;8.35;1.80;;;;;;;5.18;36.92;98454.59;5014201;28;20102;-52
2022/03/30 07:34:04;;;;;;;3.40;1.98;;;;;;;5.08;36.42;98463.47;5018052;28;20052;-51
2022/03/30 07:36:30;;;;;;;4.80;1.83;;;;;;;4.95;36.87;98465.63;5064008;28;20046;-53
2022/03/30 07:38:56;;;;;;;2.45;1.98;;;;;;;6.67;34.13;98465.66;5033884;28;20100;-50
2022/03/30 07:41:22;;;;;;;1.98;1.60;;;;;;;7.44;33.01;98459.09;5033178;28;20076;-49
2022/03/30 07:43:48;;;;;;;2.55;1.60;;;;;;;6.76;32.64;98469.59;5021565;28;20179;-51
2022/03/30 07:46:14;;;;;;;3.38;1.77;;;;;;;6.36;32.29;98472.84;5032853;28;20036;-48
2022/03/30 07:48:40;;;;;;;3.10;1.60;;;;;;;6.76;32.51;98474.78;5033850;28;20484;-53
2022/03/30 07:51:06;;;;;;;3.10;1.85;;;;;;;8.78;31.01;98472.22;5033813;28;20132;-52
2022/03/30 07:53:32;;;;;;;3.25;2.00;;;;;;;8.68;30.31;98465.78;5017657;28;20040;-51
2022/03/30 07:55:58;;;;;;;3.25;1.70;;;;;;;9.23;29.90;98465.75;5013689;28;20528;-49
2022/03/30 07:58:25;;;;;;;3.78;1.70;;;;;;;10.18;28.82;98481.72;5060559;28;20052;-50
2022/03/30 08:00:52;;;;;;;2.17;1.35;;;;;;;9.48;28.66;98484.38;5032451;28;20040;-53
2022/03/30 08:03:18;;;;;;;2.30;1.38;;;;;;;8.63;28.13;98480.69;5031168;28;20061;-49
2022/03/30 08:05:44;;;;;;;2.60;1.38;;;;;;;7.18;29.43;98480.84;5032381;28;20044;-51
2022/03/30 08:08:10;;;;;;;1.88;1.40;;;;;;;6.12;30.29;98484.91;5015533;28;20037;-52
2022/03/30 08:10:37;;;;;;;3.15;1.45;;;;;;;5.51;32.01;98474.09;5032214;28;20095;-57
2022/03/30 08:13:04;;;;;;;2.92;1.70;;;;;;;5.58;32.17;98482.47;5028504;28;20531;-49
2022/03/30 08:15:31;;;;;;;4.28;1.58;;;;;;;5.60;31.76;98469.53;5031953;28;20123;-51
2022/03/30 08:17:57;;;;;;;7.10;1.98;;;;;;;5.85;31.47;98478.09;5032427;28;20049;-51
2022/03/30 08:23:07;;;;;;;2.63;1.52;;;;;;;7.43;29.90;98475.50;5019610;28;20164;-53
2022/03/30 08:25:34;;;;;;;3.03;2.00;;;;;;;8.54;29.20;98475.91;5013118;28;20533;-52
2022/03/30 08:28:00;;;;;;;4.70;2.35;;;;;;;8.55;27.79;98477.59;5024147;28;20036;-50
2022/03/30 08:30:27;;;;;;;3.00;1.63;;;;;;;9.06;27.26;98476.06;5029812;28;20084;-50
2022/03/30 08:32:53;;;;;;;2.17;1.52;;;;;;;8.62;27.37;98476.41;5023477;28;20049;-51
2022/03/30 08:35:18;;;;;;;3.33;1.50;;;;;;;7.60;27.81;98482.59;5020076;28;20040;-53
2022/03/30 08:37:44;;;;;;;2.80;1.40;;;;;;;6.54;29.24;98479.91;5013222;28;20060;-49
2022/03/30 08:40:10;;;;;;;2.95;1.40;;;;;;;5.84;30.57;98479.84;5012966;28;20060;-50
2022/03/30 08:42:38;;;;;;;1.95;1.30;;;;;;;5.28;30.87;98460.28;5023012;28;20053;-52
2022/03/30 08:45:05;;;;;;;2.13;1.42;;;;;;;5.18;31.01;98480.34;5031666;28;20045;-54
2022/03/30 08:47:32;;;;;;;2.38;1.35;;;;;;;5.29;31.98;98480.81;5032674;28;20073;-49
2022/03/30 08:49:58;;;;;;;3.20;1.38;;;;;;;5.31;32.10;98478.22;5032596;28;20041;-50
2022/03/30 08:52:23;;;;;;;1.77;1.38;;;;;;;5.38;31.90;98479.72;5022904;28;20133;-51
2022/03/30 08:54:50;;;;;;;2.15;1.40;;;;;;;5.57;32.17;98473.03;5011599;28;20047;-49
2022/03/30 08:57:16;;;;;;;3.83;1.40;;;;;;;5.65;32.45;98476.22;5030435;28;20072;-49
2022/03/30 09:00:13;;;;;;;2.58;1.60;;;;;;;6.82;31.59;98493.47;5026589;28;20037;-51
2022/03/30 09:02:44;;;;;;;3.88;1.60;;;;;;;9.27;28.98;98488.84;5021232;28;20053;-55
2022/03/30 09:05:16;;;;;;;2.35;1.50;;;;;;;10.99;26.79;98491.19;5012610;28;20509;-52
2022/03/30 09:07:43;;;;;;;2.08;1.27;;;;;;;10.94;26.78;98493.19;5044304;28;20033;-55
2022/03/30 09:10:20;;;;;;;3.20;1.60;;;;;;;9.91;27.48;98475.28;5044143;28;20037;-53
2022/03/30 09:12:49;;;;;;;10.00;1.83;;;;;;;9.25;27.24;98490.69;5024277;28;20136;-52
2022/03/30 09:15:16;;;;;;;1.70;1.42;;;;;;;9.71;26.37;98494.47;5015510;28;20041;-49
2022/03/30 09:17:43;;;;;;;3.13;1.60;;;;;;;10.25;25.63;98499.56;5031679;28;20052;-51
2022/03/30 09:20:16;;;;;;;4.18;1.50;;;;;;;9.68;26.76;98492.00;5016060;28;20065;-52
2022/03/30 09:22:48;;;;;;;2.70;1.30;;;;;;;8.77;27.66;98513.72;5019938;28;20052;-55
2022/03/30 09:25:15;;;;;;;0.85;0.73;;;;;;;7.61;28.82;98494.63;5030200;28;20151;-51
2022/03/30 09:27:42;;;;;;;2.17;1.38;;;;;;;6.96;30.28;98502.44;5022429;28;20037;-50
2022/03/30 09:30:10;;;;;;;3.30;1.35;;;;;;;6.88;30.29;98505.31;5025076;28;20045;-50
2022/03/30 09:32:37;;;;;;;2.97;1.60;;;;;;;6.74;30.98;98489.50;5030869;28;20068;-52
2022/03/30 09:35:02;;;;;;;2.75;1.92;;;;;;;6.79;30.79;98493.59;5019457;28;20037;-54
2022/03/30 09:37:28;;;;;;;3.38;1.85;;;;;;;7.69;29.22;98478.78;5011791;28;20038;-51
2022/03/30 09:39:54;;;;;;;1.90;1.13;;;;;;;8.34;28.64;98486.31;5024610;28;20041;-51
2022/03/30 09:42:20;;;;;;;4.40;1.30;;;;;;;8.64;28.47;98497.03;5021627;28;20038;-51
2022/03/30 09:44:51;;;;;;;4.43;1.55;;;;;;;9.23;28.17;98499.44;5025546;28;20041;-51
2022/03/30 09:47:18;;;;;;;2.83;1.30;;;;;;;9.06;27.02;98505.44;5031420;28;20060;-52
2022/03/30 09:49:52;;;;;;;2.55;1.38;;;;;;;8.66;27.67;98493.50;5027588;28;20136;-51
2022/03/30 09:52:27;;;;;;;4.07;1.40;;;;;;;8.97;27.89;98508.47;5029332;28;20056;-54
2022/03/30 09:54:57;;;;;;;2.50;1.20;;;;;;;8.48;27.37;98504.66;5030375;28;20096;-51
2022/03/30 09:57:38;;;;;;;1.92;1.20;;;;;;;8.17;27.34;98496.53;5021791;28;20054;-49
2022/03/30 10:00:10;;;;;;;2.83;1.42;;;;;;;8.15;27.82;98508.72;5033223;28;20049;-50
2022/03/30 10:02:51;;;;;;;1.42;1.17;;;;;;;7.58;28.10;98503.38;5011600;28;20058;-49
2022/03/30 10:05:19;;;;;;;3.83;1.50;;;;;;;7.50;28.10;98478.69;5043115;28;20058;-51
2022/03/30 10:07:45;;;;;;;1.20;1.00;;;;;;;7.15;28.70;98490.47;5019902;28;20125;-52
2022/03/30 10:10:13;;;;;;;2.83;1.70;;;;;;;6.71;29.00;98484.44;5029256;28;20462;-50
2022/03/30 10:12:39;;;;;;;2.67;1.52;;;;;;;8.04;28.29;98507.44;5022213;28;20045;-50
2022/03/30 10:15:07;;;;;;;9.18;2.35;;;;;;;9.59;26.96;98500.25;5011180;28;20164;-52
2022/03/30 10:17:34;;;;;;;3.42;2.33;;;;;;;11.49;25.48;98505.75;5017701;28;20127;-53
2022/03/30 10:20:01;;;;;;;2.85;1.40;;;;;;;12.68;22.98;98509.94;5024222;28;20088;-48
2022/03/30 10:22:55;;;;;;;2.67;1.75;;;;;;;11.12;24.54;98508.72;5019086;28;20517;-51
2022/03/30 10:25:40;;;;;;;1.40;0.82;;;;;;;9.36;26.03;98516.13;5028964;28;20037;-49
2022/03/30 10:28:22;;;;;;;1.88;1.38;;;;;;;10.15;24.94;98506.97;5028655;28;20048;-54
2022/03/30 10:30:53;;;;;;;1.85;1.30;;;;;;;11.91;23.86;98512.88;5027628;28;20437;-52
2022/03/30 10:33:31;;;;;;;2.95;1.38;;;;;;;11.74;23.88;98503.44;4999310;28;20444;-53
2022/03/30 10:35:58;;;;;;;2.92;1.40;;;;;;;10.74;24.88;98514.25;5027359;28;20385;-51
2022/03/30 10:38:24;;;;;;;2.92;1.60;;;;;;;9.82;26.12;98521.66;5028798;28;20223;-51
2022/03/30 10:41:06;;;;;;;1.25;0.98;;;;;;;8.47;26.84;98506.44;5018233;28;20071;-51
2022/03/30 10:43:32;;;;;;;2.53;1.55;;;;;;;8.01;27.79;98506.72;5025171;28;20060;-48
2022/03/30 10:45:59;;;;;;;2.08;1.48;;;;;;;8.70;27.94;98515.75;5029343;28;20440;-49
2022/03/30 10:48:28;;;;;;;1.63;1.30;;;;;;;8.57;27.65;98525.00;5001806;28;20077;-49
2022/03/30 10:50:59;;;;;;;3.33;0.90;;;;;;;7.24;29.54;98529.72;5012437;28;20129;-49
2022/03/30 10:53:31;;;;;;;2.88;1.40;;;;;;;6.47;30.30;98522.34;5022927;28;20194;-48
2022/03/30 10:56:09;;;;;;;1.70;1.35;;;;;;;6.51;30.50;98517.91;5030740;28;20042;-52
2022/03/30 10:58:36;;;;;;;2.08;1.27;;;;;;;7.71;29.31;98514.03;5021720;28;20394;-53
2022/03/30 11:01:25;;;;;;;3.00;1.45;;;;;;;7.70;29.16;98519.25;5028282;28;20140;-48
2022/03/30 11:03:56;;;;;;;2.80;1.20;;;;;;;8.12;28.64;98516.59;5044840;28;20057;-51
2022/03/30 11:06:22;;;;;;;3.30;1.10;;;;;;;9.03;27.65;98515.13;5010677;28;20457;-51
2022/03/30 11:08:53;;;;;;;1.95;1.30;;;;;;;10.12;25.67;98510.56;5038007;28;20045;-52
2022/03/30 11:11:23;;;;;;;1.45;1.10;;;;;;;11.70;23.53;98512.31;5027627;28;20171;-53
2022/03/30 11:13:49;;;;;;;;;;;;;;;11.34;22.65;98502.25;5012273;28;20042;-48
2022/03/30 11:16:15;;;;;;;1.42;1.05;;;;;;;11.16;22.91;98515.44;5009223;28;20381;-50
2022/03/30 11:18:58;;;;;;;1.48;1.10;;;;;;;11.63;22.41;98516.19;5010457;28;20069;-51
2022/03/30 11:21:25;;;;;;;3.22;1.20;;;;;;;12.37;21.83;98504.94;5009555;28;20118;-47
2022/03/30 11:23:58;;;;;;;2.17;0.90;;;;;;;11.57;21.26;98515.69;5009314;28;20421;-48
2022/03/30 11:26:47;;;;;;;1.05;0.93;;;;;;;9.49;22.64;98503.38;5043883;28;20042;-49
2022/03/30 11:29:40;;;;;;;1.00;0.88;;;;;;;10.52;22.05;98500.72;5029061;28;20406;-52
2022/03/30 11:32:24;;;;;;;2.53;0.90;;;;;;;11.57;21.36;98508.72;5019160;28;20030;-52
2022/03/30 11:34:52;;;;;;;0.88;0.70;;;;;;;10.91;20.86;98500.34;5019236;28;20108;-55
2022/03/30 11:37:19;;;;;;;3.10;1.10;;;;;;;10.57;21.56;98491.75;5029767;28;20045;-50
2022/03/30 11:39:49;;;;;;;0.70;0.65;;;;;;;11.94;19.99;98514.44;5029741;28;20060;-54
2022/03/30 11:42:20;;;;;;;2.95;1.10;;;;;;;12.50;19.77;98496.28;5021393;28;20120;-50
2022/03/30 11:47:34;;;;;;;1.40;1.10;;;;;;;13.34;18.41;98496.25;5023089;28;20042;-49
2022/03/30 11:50:00;;;;;;;2.38;0.77;;;;;;;12.15;19.12;98485.38;5025613;28;20429;-54
2022/03/30 11:52:26;;;;;;;2.47;1.33;;;;;;;11.28;20.17;98489.56;5054833;28;20041;-49
2022/03/30 11:54:53;;;;;;;2.30;1.00;;;;;;;12.64;19.67;98491.06;5033553;28;20789;-49
2022/03/30 11:57:21;;;;;;;1.17;0.70;;;;;;;12.80;18.65;98504.00;5021998;28;20046;-52
2022/03/30 11:59:55;;;;;;;2.80;0.82;;;;;;;12.01;18.45;98507.97;5028254;28;20048;-52